Corryton, Tennessee
Current Conditions -  °F | °C
As of 2:15 PM on Friday 28 Nov 2014 (Local Time) from KMOR Reporting Station
Clear Clear  
Wind Chill: 34°   Ceiling: Unl
Heat Index: 37°   Visibility: 10mi
Dew Point: 19°   Wind: 5mph
Humidity: 48%   Direction: 180°S
Pressure: 30.3"   Gusts: NA
Location:  36.15°N, 83.78°W
Report Text: KMOR 281915Z AUTO 18004KT 10SM CLR 03/M07 A3030 RMK
Loading
Personal Weather Stations






























Interactive Weather Map New forecast layout! Learn more

10-Day Weather Forecast

Advertisements
Track Severe Weather on mobile